Terminal Aerodrome Forecast
Issued by NWS

Home | Current Version | Previous Version | Text Only | Print | Product List | Glossary On
Versions: 1 2 3 4 5 6 7 8 9 10 11 12 13 14 15 16 17 18 19 20 21
000
FTUS46 KMFR 041532 AAB
TAFRBG
TAF AMD
KRBG 041532Z 0416/0512 17003KT P6SM -RA SCT025 OVC060
      TEMPO 0416/0419 BKN025
     FM042100 34008KT P6SM -SHRA BKN010 OVC015
     FM050200 36004KT P6SM VCSH BKN015 OVC025
     FM050900 VRB03KT 5SM BR VCSH BKN008 OVC020=

USA.gov is the U.S. government's official web portal to all federal, state and local government web resources and services.